Time;durP1;ratioP1;P1;durP2;ratioP2;P2;SDS_P1;SDS_P2;PMS_P1;PMS_P2;Temp;Humidity;BMP_temperature;BMP_pressure;BME280_temperature;BME280_humidity;BME280_pressure;Samples;Min_cycle;Max_cycle;Signal;HPM_P1;HPM_P2
2021/12/01 00:02:36;;;;;;;;;;;9.00;99.90;;;;;;4978842;28;19945;-89
2021/12/01 00:05:32;;;;;;;;;;;;;;;;;;;;;
2021/12/01 00:08:00;;;;;;;;;;;9.00;99.90;;;;;;4994750;28;19997;-90
2021/12/01 00:10:39;;;;;;;;;;;9.00;99.90;;;;;;4978555;28;20369;-89
2021/12/01 00:13:18;;;;;;;;;;;9.00;99.90;;;;;;4978968;28;19937;-90
2021/12/01 00:15:59;;;;;;;;;;;;;;;;;;;;;
2021/12/01 00:18:45;;;;;;;;;;;9.10;99.90;;;;;;4994935;28;19926;-90
2021/12/01 00:21:26;;;;;;;;;;;9.10;99.90;;;;;;4995479;28;19932;-91
2021/12/01 00:23:57;;;;;;;;;;;9.00;99.90;;;;;;4996184;28;19922;-90
2021/12/01 00:26:40;;;;;;;;;;;9.00;99.90;;;;;;4995909;28;19921;-90
2021/12/01 00:29:15;;;;;;;;;;;;;;;;;;;;;
2021/12/01 00:32:06;;;;;;;;;;;9.20;99.90;;;;;;4994819;28;20265;-92
2021/12/01 00:34:47;;;;;;;;;;;;;;;;;;;;;
2021/12/01 00:37:52;;;;;;;;;;;;;;;;;;;;;
2021/12/01 00:40:44;;;;;;;;;;;9.10;99.90;;;;;;4994424;28;19961;-91
2021/12/01 00:43:37;;;;;;;;;;;9.10;99.90;;;;;;4978573;28;19929;-90
2021/12/01 00:46:24;;;;;;;;;;;;;;;;;;;;;
2021/12/01 00:48:50;;;;;;;;;;;9.20;99.90;;;;;;4994717;28;19922;-88
2021/12/01 00:51:20;;;;;;;;;;;9.20;99.90;;;;;;4994523;28;19929;-90
2021/12/01 00:53:56;;;;;;;;;;;;;;;;;;;;;
2021/12/01 00:56:34;;;;;;;;;;;;;;;;;;;;;
2021/12/01 00:59:10;;;;;;;;;;;9.10;99.90;;;;;;4994629;28;19937;-91
2021/12/01 01:02:07;;;;;;;;;;;9.20;99.90;;;;;;4977691;28;19922;-93
2021/12/01 01:07:32;;;;;;;;;;;9.20;99.90;;;;;;4993827;28;19925;-90
2021/12/01 01:10:04;;;;;;;;;;;9.20;99.90;;;;;;4978220;28;19951;-90
2021/12/01 01:18:08;;;;;;;;;;;9.30;99.90;;;;;;4994063;28;19928;-90
2021/12/01 01:20:34;;;;;;;;;;;9.30;99.90;;;;;;4977606;28;19929;-91
2021/12/01 01:22:59;;;;;;;;;;;9.20;99.90;;;;;;4978071;28;19922;-91
2021/12/01 01:25:25;;;;;;;;;;;9.20;99.90;;;;;;4977375;28;19922;-91
2021/12/01 01:27:50;;;;;;;;;;;9.30;99.90;;;;;;4993914;28;19996;-92
2021/12/01 01:30:23;;;;;;;;;;;9.30;99.90;;;;;;4993532;28;19968;-90
2021/12/01 01:32:49;;;;;;;;;;;9.30;99.90;;;;;;4993922;28;19921;-92
2021/12/01 01:35:14;;;;;;;;;;;9.30;99.90;;;;;;4993789;28;19941;-91
2021/12/01 01:37:43;;;;;;;;;;;9.30;99.90;;;;;;4977474;28;20016;-93
2021/12/01 01:40:16;;;;;;;;;;;9.30;99.90;;;;;;4977417;28;20247;-90
2021/12/01 01:42:47;;;;;;;;;;;9.30;99.90;;;;;;4993631;28;19922;-92
2021/12/01 01:45:23;;;;;;;;;;;9.30;99.90;;;;;;4977472;28;20281;-92
2021/12/01 01:48:30;;;;;;;;;;;9.40;99.90;;;;;;4993477;28;19976;-91
2021/12/01 01:50:48;;;;;;;;;;;9.30;99.90;;;;;;4988625;28;20317;-91
2021/12/01 01:53:33;;;;;;;;;;;9.30;99.90;;;;;;4993587;28;20365;-92
2021/12/01 01:56:03;;;;;;;;;;;9.30;99.90;;;;;;4977851;28;19922;-93
2021/12/01 01:58:39;;;;;;;;;;;9.30;99.90;;;;;;4976849;28;19921;-92
2021/12/01 02:04:16;;;;;;;;;;;9.30;99.90;;;;;;4963205;28;19929;-92
2021/12/01 02:06:51;;;;;;;;;;;9.30;99.90;;;;;;4977144;28;19922;-92
2021/12/01 02:09:37;;;;;;;;;;;;;;;;;;;;;
2021/12/01 02:12:37;;;;;;;;;;;9.40;99.90;;;;;;4993500;28;19928;-92
2021/12/01 02:15:36;;;;;;;;;;;9.50;99.90;;;;;;4977748;28;20120;-90
2021/12/01 02:18:09;;;;;;;;;;;9.50;99.90;;;;;;4970753;28;20004;-92
2021/12/01 02:20:57;;;;;;;;;;;9.50;99.90;;;;;;4977010;28;19965;-91
2021/12/01 02:23:31;;;;;;;;;;;9.50;99.90;;;;;;4977458;28;19996;-92
2021/12/01 02:26:14;;;;;;;;;;;9.40;99.90;;;;;;4977178;28;19922;-92
2021/12/01 02:28:43;;;;;;;;;;;9.50;99.90;;;;;;4976998;28;20254;-92
2021/12/01 02:31:30;;;;;;;;;;;;;;;;;;;;;
2021/12/01 02:34:19;;;;;;;;;;;9.40;99.90;;;;;;4993231;28;20004;-93
2021/12/01 02:36:48;;;;;;;;;;;9.50;99.90;;;;;;4992141;28;20424;-92
2021/12/01 02:39:30;;;;;;;;;;;9.50;99.90;;;;;;4977772;28;19929;-90
2021/12/01 02:42:08;;;;;;;;;;;9.50;99.90;;;;;;4976619;28;19922;-91
2021/12/01 02:44:47;;;;;;;;;;;9.40;99.90;;;;;;4957462;28;19969;-91
2021/12/01 02:47:21;;;;;;;;;;;9.40;99.90;;;;;;4974007;28;20310;-91
2021/12/01 02:49:49;;;;;;;;;;;9.40;99.90;;;;;;4957673;28;19976;-92
2021/12/01 02:52:22;;;;;;;;;;;9.50;99.90;;;;;;4958275;28;19921;-91
2021/12/01 02:55:21;;;;;;;;;;;;;;;;;;;;;
2021/12/01 02:57:51;;;;;;;;;;;9.50;99.90;;;;;;4973437;28;20314;-91
2021/12/01 03:00:35;;;;;;;;;;;;;;;;;;;;;
2021/12/01 03:03:08;;;;;;;;;;;9.50;99.90;;;;;;4994145;28;19922;-92
2021/12/01 03:05:38;;;;;;;;;;;9.50;99.90;;;;;;4980140;28;20009;-90
2021/12/01 03:08:19;;;;;;;;;;;9.60;99.90;;;;;;4981136;28;19928;-90
2021/12/01 03:11:00;;;;;;;;;;;9.50;99.90;;;;;;4980077;28;19933;-91
2021/12/01 03:13:52;;;;;;;;;;;9.60;99.90;;;;;;4996855;28;19977;-91
2021/12/01 03:16:46;;;;;;;;;;;9.50;99.90;;;;;;4995737;28;19922;-92
2021/12/01 03:19:34;;;;;;;;;;;9.60;99.90;;;;;;4996478;28;19922;-91
2021/12/01 03:22:29;;;;;;;;;;;9.60;99.90;;;;;;4980525;28;20005;-92
2021/12/01 03:27:56;;;;;;;;;;;;;;;;;;;;;
2021/12/01 03:30:50;;;;;;;;;;;9.60;99.90;;;;;;4995829;28;19929;-93
2021/12/01 03:33:25;;;;;;;;;;;;;;;;;;;;;
2021/12/01 03:36:02;;;;;;;;;;;9.60;99.90;;;;;;4995741;28;20347;-93
2021/12/01 03:38:40;;;;;;;;;;;9.60;99.90;;;;;;4980485;28;19929;-93
2021/12/01 03:44:16;;;;;;;;;;;9.60;99.90;;;;;;4995987;28;19922;-91
2021/12/01 03:46:52;;;;;;;;;;;9.60;99.90;;;;;;4979669;28;20328;-94
2021/12/01 03:49:41;;;;;;;;;;;9.60;99.90;;;;;;4979756;28;20008;-91
2021/12/01 03:52:14;;;;;;;;;;;;;;;;;;;;;
2021/12/01 03:57:47;;;;;;;;;;;;;;;;;;;;;
2021/12/01 04:00:18;;;;;;;;;;;9.60;99.90;;;;;;4996101;28;19921;-91
2021/12/01 04:02:49;;;;;;;;;;;9.60;99.90;;;;;;4995485;28;20373;-91
2021/12/01 04:05:25;;;;;;;;;;;9.50;99.90;;;;;;4978909;28;20361;-91
2021/12/01 04:08:01;;;;;;;;;;;9.50;99.90;;;;;;4979284;28;19921;-92
2021/12/01 04:10:35;;;;;;;;;;;9.50;99.90;;;;;;4979515;28;19961;-93
2021/12/01 04:13:11;;;;;;;;;;;9.50;99.90;;;;;;4978936;28;20016;-90
2021/12/01 04:15:37;;;;;;;;;;;9.40;99.90;;;;;;4979248;28;19922;-92
2021/12/01 04:18:20;;;;;;;;;;;9.50;99.90;;;;;;4978913;28;19922;-93
2021/12/01 04:20:59;;;;;;;;;;;9.50;99.90;;;;;;4979134;28;19977;-92
2021/12/01 04:23:29;;;;;;;;;;;9.50;99.90;;;;;;4979044;28;19926;-92
2021/12/01 04:26:11;;;;;;;;;;;;;;;;;;;;;
2021/12/01 04:28:47;;;;;;;;;;;9.50;99.90;;;;;;4995208;28;19922;-92
2021/12/01 04:31:18;;;;;;;;;;;9.50;99.90;;;;;;4978643;28;19922;-92
2021/12/01 04:33:52;;;;;;;;;;;9.50;99.90;;;;;;4995269;28;19972;-91
2021/12/01 04:39:17;;;;;;;;;;;9.50;99.90;;;;;;4990581;28;19929;-91
2021/12/01 04:42:05;;;;;;;;;;;;;;;;;;;;;
2021/12/01 04:44:53;;;;;;;;;;;9.50;99.90;;;;;;4994524;28;19929;-91
2021/12/01 04:47:36;;;;;;;;;;;;;;;;;;;;;
2021/12/01 04:50:28;;;;;;;;;;;9.50;99.90;;;;;;4994165;28;19929;-90
2021/12/01 04:52:55;;;;;;;;;;;9.50;99.90;;;;;;4994421;28;19922;-90
2021/12/01 04:55:44;;;;;;;;;;;9.50;99.90;;;;;;4994365;28;20405;-90
2021/12/01 04:58:14;;;;;;;;;;;9.50;99.90;;;;;;4993896;28;19926;-91
2021/12/01 05:01:05;;;;;;;;;;;9.50;99.90;;;;;;4978103;28;19972;-92
2021/12/01 05:03:36;;;;;;;;;;;9.40;99.90;;;;;;4994331;28;19936;-90
2021/12/01 05:06:17;;;;;;;;;;;;;;;;;;;;;
2021/12/01 05:08:46;;;;;;;;;;;9.40;99.90;;;;;;4994256;28;20350;-89
2021/12/01 05:11:24;;;;;;;;;;;;;;;;;;;;;
2021/12/01 05:13:56;;;;;;;;;;;9.40;99.90;;;;;;4993925;28;19921;-90
2021/12/01 05:16:29;;;;;;;;;;;9.40;99.90;;;;;;4977371;28;19944;-91
2021/12/01 05:19:05;;;;;;;;;;;9.30;99.90;;;;;;4993486;28;20004;-88
2021/12/01 05:21:51;;;;;;;;;;;9.30;99.90;;;;;;4993728;28;19922;-90
2021/12/01 05:24:28;;;;;;;;;;;9.30;99.90;;;;;;4992833;28;20362;-91
2021/12/01 05:27:21;;;;;;;;;;;;;;;;;;;;;
2021/12/01 05:30:05;;;;;;;;;;;9.30;99.90;;;;;;4989400;28;19976;-92
2021/12/01 05:32:40;;;;;;;;;;;9.30;99.90;;;;;;4977648;28;20012;-90
2021/12/01 05:35:22;;;;;;;;;;;9.20;99.90;;;;;;4993849;28;20338;-92
2021/12/01 05:38:02;;;;;;;;;;;9.20;99.90;;;;;;4977757;28;19929;-89
2021/12/01 05:40:51;;;;;;;;;;;9.20;99.90;;;;;;4977374;28;19922;-89
2021/12/01 05:43:17;;;;;;;;;;;9.20;99.90;;;;;;4993037;28;20004;-91
2021/12/01 05:45:55;;;;;;;;;;;9.20;99.90;;;;;;4993077;28;20334;-91
2021/12/01 05:48:45;;;;;;;;;;;9.20;99.90;;;;;;4992602;28;20452;-90
2021/12/01 05:51:21;;;;;;;;;;;9.20;99.90;;;;;;4992774;28;19928;-91
2021/12/01 05:53:55;;;;;;;;;;;9.20;99.90;;;;;;4977507;28;19965;-91
2021/12/01 05:56:40;;;;;;;;;;;9.20;99.90;;;;;;4976663;28;20420;-90
2021/12/01 05:59:09;;;;;;;;;;;9.20;99.90;;;;;;4976997;28;19961;-90
2021/12/01 06:01:35;;;;;;;;;;;9.10;99.90;;;;;;4993412;28;19944;-91
2021/12/01 06:04:08;;;;;;;;;;;9.10;99.90;;;;;;4992808;28;19937;-91
2021/12/01 06:06:57;;;;;;;;;;;9.10;99.90;;;;;;4993328;28;20272;-90
2021/12/01 06:09:24;;;;;;;;;;;9.10;99.90;;;;;;4992402;28;20028;-91
2021/12/01 06:11:52;;;;;;;;;;;9.10;99.90;;;;;;4976105;28;19929;-89
2021/12/01 06:14:17;;;;;;;;;;;9.10;99.90;;;;;;4992434;28;19921;-90
2021/12/01 06:16:45;;;;;;;;;;;9.00;99.90;;;;;;4992476;28;19922;-92
2021/12/01 06:19:13;;;;;;;;;;;9.00;99.90;;;;;;4976544;28;20256;-89
2021/12/01 06:21:46;;;;;;;;;;;9.00;99.90;;;;;;4993012;28;19926;-92
2021/12/01 06:24:33;;;;;;;;;;;9.00;99.90;;;;;;4977438;28;19932;-89
2021/12/01 06:27:12;;;;;;;;;;;9.00;99.90;;;;;;4977880;28;19933;-91
2021/12/01 06:29:41;;;;;;;;;;;9.00;99.90;;;;;;4978656;28;19950;-90
2021/12/01 06:32:14;;;;;;;;;;;9.00;99.90;;;;;;4977703;28;20034;-89
2021/12/01 06:34:44;;;;;;;;;;;8.90;99.90;;;;;;4993906;28;20072;-94
2021/12/01 06:37:15;;;;;;;;;;;8.90;99.90;;;;;;4975776;28;19932;-89
2021/12/01 06:39:52;;;;;;;;;;;8.90;99.90;;;;;;4990706;28;19932;-88
2021/12/01 06:42:38;;;;;;;;;;;;;;;;;;;;;
2021/12/01 06:45:21;;;;;;;;;;;8.90;99.90;;;;;;4994179;28;20321;-93
2021/12/01 06:47:49;;;;;;;;;;;8.90;99.90;;;;;;4996620;28;20021;-91
2021/12/01 06:50:29;;;;;;;;;;;8.90;99.90;;;;;;4996103;28;20016;-92
2021/12/01 06:53:11;;;;;;;;;;;8.90;99.90;;;;;;4996885;28;19980;-92
2021/12/01 06:55:42;;;;;;;;;;;8.90;99.90;;;;;;4996767;28;20036;-93
2021/12/01 06:58:22;;;;;;;;;;;8.90;99.90;;;;;;4981567;28;19926;-92
2021/12/01 07:01:00;;;;;;;;;;;;;;;;;;;;;
2021/12/01 07:03:26;;;;;;;;;;;8.80;99.90;;;;;;4996295;28;20322;-90
2021/12/01 07:06:09;;;;;;;;;;;8.80;99.90;;;;;;4980503;28;20378;-92
2021/12/01 07:08:38;;;;;;;;;;;8.80;99.90;;;;;;4996645;28;19926;-90
2021/12/01 07:11:13;;;;;;;;;;;8.80;99.90;;;;;;4996808;28;19926;-92
2021/12/01 07:13:59;;;;;;;;;;;8.80;99.90;;;;;;4996768;28;19952;-92
2021/12/01 07:16:29;;;;;;;;;;;8.80;99.90;;;;;;4996101;28;19930;-92
2021/12/01 07:19:06;;;;;;;;;;;8.80;99.90;;;;;;4980220;28;19933;-92
2021/12/01 07:21:46;;;;;;;;;;;8.80;99.90;;;;;;4979863;28;20016;-92
2021/12/01 07:24:19;;;;;;;;;;;8.80;99.90;;;;;;4995635;28;20277;-91
2021/12/01 07:27:08;;;;;;;;;;;8.80;99.90;;;;;;4995319;28;19932;-92
2021/12/01 07:29:49;;;;;;;;;;;;;;;;;;;;;
2021/12/01 07:32:26;;;;;;;;;;;8.80;99.90;;;;;;5011316;28;19926;-92
2021/12/01 07:34:56;;;;;;;;;;;8.90;99.90;;;;;;4979957;28;19926;-93
2021/12/01 07:37:31;;;;;;;;;;;8.80;99.90;;;;;;4995656;28;19987;-92
2021/12/01 07:40:14;;;;;;;;;;;8.80;99.90;;;;;;4979969;28;19925;-94
2021/12/01 07:42:42;;;;;;;;;;;8.90;99.90;;;;;;4995774;28;19948;-92
2021/12/01 07:45:22;;;;;;;;;;;8.90;99.90;;;;;;4979425;28;19926;-92
2021/12/01 07:47:52;;;;;;;;;;;8.90;99.90;;;;;;4979739;28;19957;-92
2021/12/01 07:50:21;;;;;;;;;;;8.90;99.90;;;;;;4994626;28;19933;-92
2021/12/01 07:52:49;;;;;;;;;;;8.80;99.90;;;;;;4979407;28;19980;-93
2021/12/01 07:55:24;;;;;;;;;;;;;;;;;;;;;
2021/12/01 07:58:11;;;;;;;;;;;8.90;99.90;;;;;;4995901;28;19994;-94
2021/12/01 08:00:39;;;;;;;;;;;8.90;99.90;;;;;;4978921;28;19925;-95
2021/12/01 08:03:13;;;;;;;;;;;8.90;99.90;;;;;;4995936;28;20322;-94
2021/12/01 08:05:38;;;;;;;;;;;9.00;99.90;;;;;;4979922;28;19932;-96
2021/12/01 08:08:16;;;;;;;;;;;;;;;;;;;;;
2021/12/01 08:10:59;;;;;;;;;;;9.00;99.90;;;;;;4995819;28;19929;-94
2021/12/01 08:13:32;;;;;;;;;;;8.90;99.90;;;;;;4994970;28;19930;-93
2021/12/01 08:16:10;;;;;;;;;;;;;;;;;;;;;
2021/12/01 08:18:49;;;;;;;;;;;8.90;99.90;;;;;;4995498;28;19933;-93
2021/12/01 08:21:46;;;;;;;;;;;;;;;;;;;;;
2021/12/01 08:24:12;;;;;;;;;;;9.00;99.90;;;;;;4995553;28;20285;-93
2021/12/01 08:26:43;;;;;;;;;;;9.00;99.90;;;;;;4978865;28;20012;-92
2021/12/01 08:29:35;;;;;;;;;;;9.00;99.90;;;;;;4978861;28;19953;-93
2021/12/01 08:32:06;;;;;;;;;;;9.00;99.90;;;;;;4993705;28;19926;-91
2021/12/01 08:34:57;;;;;;;;;;;;;;;;;;;;;
2021/12/01 08:40:48;;;;;;;;;;;9.00;99.90;;;;;;4987605;28;20016;-94
2021/12/01 08:43:26;;;;;;;;;;;9.00;99.90;;;;;;4979438;28;19933;-92
2021/12/01 08:46:10;;;;;;;;;;;8.90;99.90;;;;;;4978583;28;19926;-95
2021/12/01 08:48:38;;;;;;;;;;;9.00;99.90;;;;;;4978347;28;19925;-91
2021/12/01 08:54:02;;;;;;;;;;;9.00;99.90;;;;;;4986519;28;19925;-94
2021/12/01 08:56:37;;;;;;;;;;;9.00;99.90;;;;;;4994698;28;19926;-94
2021/12/01 09:01:54;;;;;;;;;;;9.00;99.90;;;;;;4993772;28;20021;-93
2021/12/01 09:04:39;;;;;;;;;;;;;;;;;;;;;
2021/12/01 09:07:26;;;;;;;;;;;8.90;99.90;;;;;;4994716;28;19937;-94
2021/12/01 09:09:52;;;;;;;;;;;9.00;99.90;;;;;;4994392;28;19926;-92
2021/12/01 09:12:18;;;;;;;;;;;9.00;99.90;;;;;;4978055;28;19933;-93
2021/12/01 09:15:00;;;;;;;;;;;9.00;99.90;;;;;;4994124;28;19930;-93
2021/12/01 09:17:30;;;;;;;;;;;9.00;99.90;;;;;;4978037;28;20036;-91
2021/12/01 09:20:19;;;;;;;;;;;9.00;99.90;;;;;;4978475;28;20292;-92
2021/12/01 09:23:05;;;;;;;;;;;9.00;99.90;;;;;;4977432;28;19925;-93
2021/12/01 09:25:51;;;;;;;;;;;;;;;;;;;;;
2021/12/01 09:28:20;;;;;;;;;;;8.90;99.90;;;;;;4994468;28;19930;-92
2021/12/01 09:31:16;;;;;;;;;;;;;;;;;;;;;
2021/12/01 09:33:57;;;;;;;;;;;8.90;99.90;;;;;;4989653;28;19937;-94
2021/12/01 09:36:46;;;;;;;;;;;8.80;99.90;;;;;;4978004;28;19965;-94
2021/12/01 09:39:29;;;;;;;;;;;8.80;99.90;;;;;;4994886;28;19926;-93
2021/12/01 09:42:24;;;;;;;;;;;8.80;99.90;;;;;;4978456;28;20082;-92
2021/12/01 09:44:53;;;;;;;;;;;8.80;99.90;;;;;;4977298;28;19964;-94
2021/12/01 09:50:17;;;;;;;;;;;8.80;99.90;;;;;;4982137;28;20004;-95
2021/12/01 09:52:51;;;;;;;;;;;8.90;99.90;;;;;;4977801;28;20366;-94
2021/12/01 09:55:21;;;;;;;;;;;8.90;99.90;;;;;;4980398;28;19989;-95
2021/12/01 09:58:03;;;;;;;;;;;8.90;99.90;;;;;;4994580;28;20508;-94
2021/12/01 10:00:44;;;;;;;;;;;;;;;;;;;;;
2021/12/01 10:03:30;;;;;;;;;;;8.90;99.90;;;;;;5009678;28;19933;-94
2021/12/01 10:09:07;;;;;;;;;;;8.90;99.90;;;;;;4984824;28;20259;-95
2021/12/01 10:11:54;;;;;;;;;;;8.90;99.90;;;;;;4993759;28;19926;-94
2021/12/01 10:14:29;;;;;;;;;;;;;;;;;;;;;
2021/12/01 10:16:58;;;;;;;;;;;8.90;99.90;;;;;;4998229;28;19926;-93
2021/12/01 10:19:28;;;;;;;;;;;8.90;99.90;;;;;;4981729;28;19938;-94
2021/12/01 10:22:22;;;;;;;;;;;8.90;99.90;;;;;;4981377;28;19930;-94
2021/12/01 10:27:49;;;;;;;;;;;;;;;;;;;;;
2021/12/01 10:30:33;;;;;;;;;;;8.90;99.90;;;;;;4997193;28;19932;-93
2021/12/01 10:33:10;;;;;;;;;;;8.90;99.90;;;;;;4997665;28;20263;-96
2021/12/01 10:35:44;;;;;;;;;;;8.90;99.90;;;;;;4997382;28;19926;-92
2021/12/01 10:38:13;;;;;;;;;;;8.90;99.90;;;;;;4981455;28;19925;-95
2021/12/01 10:40:43;;;;;;;;;;;8.90;99.90;;;;;;4980821;28;19972;-93
2021/12/01 10:43:19;;;;;;;;;;;8.90;99.90;;;;;;4981119;28;20020;-93
2021/12/01 10:45:50;;;;;;;;;;;8.90;99.90;;;;;;4980358;28;19925;-91
2021/12/01 10:48:22;;;;;;;;;;;8.80;99.90;;;;;;4981525;28;20009;-92
2021/12/01 10:51:14;;;;;;;;;;;8.90;99.90;;;;;;4997619;28;19951;-94
2021/12/01 10:53:40;;;;;;;;;;;8.80;99.90;;;;;;4997445;28;19934;-94
2021/12/01 10:56:29;;;;;;;;;;;8.80;99.90;;;;;;4981496;28;19929;-94
2021/12/01 10:59:10;;;;;;;;;;;8.70;99.90;;;;;;4998264;28;19925;-94
2021/12/01 11:01:41;;;;;;;;;;;8.70;99.90;;;;;;4998964;28;20009;-92
2021/12/01 11:04:50;;;;;;;;;;;8.60;99.90;;;;;;4998144;28;19926;-96
2021/12/01 11:07:46;;;;;;;;;;;8.70;99.90;;;;;;4997855;28;19926;-93
2021/12/01 11:10:24;;;;;;;;;;;8.70;99.90;;;;;;4981503;28;19932;-94
2021/12/01 11:13:28;;;;;;;;;;;8.70;99.90;;;;;;4999488;28;19977;-95
2021/12/01 11:16:02;;;;;;;;;;;8.70;99.90;;;;;;4981834;28;19930;-94
2021/12/01 11:18:51;;;;;;;;;;;8.80;99.90;;;;;;4981284;28;19973;-93
2021/12/01 11:21:31;;;;;;;;;;;8.80;99.90;;;;;;4996757;28;19926;-94
2021/12/01 11:27:10;;;;;;;;;;;8.70;99.90;;;;;;4987515;28;19983;-94
2021/12/01 11:29:39;;;;;;;;;;;8.80;99.90;;;;;;4999002;28;19932;-93
2021/12/01 11:32:39;;;;;;;;;;;8.80;99.90;;;;;;4982092;28;19937;-93
2021/12/01 11:35:50;;;;;;;;;;;8.80;99.90;;;;;;4972234;28;19926;-94
2021/12/01 11:37:59;;;;;;;;;;;8.80;99.90;;;;;;4988173;28;19933;-94
2021/12/01 11:40:39;;;;;;;;;;;;;;;;;;;;;
2021/12/01 11:43:16;;;;;;;;;;;8.80;99.90;;;;;;4996184;28;19926;-93
2021/12/01 11:46:05;;;;;;;;;;;8.80;99.90;;;;;;4980191;28;19926;-95
2021/12/01 11:48:39;;;;;;;;;;;8.80;99.90;;;;;;4979355;28;19930;-86
2021/12/01 11:51:13;;;;;;;;;;;8.80;99.90;;;;;;4978263;28;19930;-88
2021/12/01 11:53:42;;;;;;;;;;;8.80;99.90;;;;;;4994811;28;19932;-85
2021/12/01 11:56:14;;;;;;;;;;;8.70;99.90;;;;;;4994545;28;20358;-85
2021/12/01 11:58:48;;;;;;;;;;;8.80;99.90;;;;;;4994436;28;19933;-86
2021/12/01 12:01:20;;;;;;;;;;;8.80;99.90;;;;;;4978443;28;20024;-86
2021/12/01 12:03:55;;;;;;;;;;;8.70;99.90;;;;;;4994193;28;19926;-86
2021/12/01 12:06:23;;;;;;;;;;;8.70;99.90;;;;;;4994865;28;19926;-85
2021/12/01 12:08:58;;;;;;;;;;;8.70;99.90;;;;;;5010246;28;19932;-86
2021/12/01 12:11:34;;;;;;;;;;;8.60;99.90;;;;;;4994740;28;19930;-84
2021/12/01 12:14:00;;;;;;;;;;;8.50;99.90;;;;;;4993908;28;20352;-84
2021/12/01 12:16:28;;;;;;;;;;;8.50;99.90;;;;;;5010695;28;19926;-85
2021/12/01 12:18:54;;;;;;;;;;;8.40;99.90;;;;;;4994067;28;20017;-85
2021/12/01 12:21:42;;;;;;;;;;;8.40;99.90;;;;;;4994417;28;20009;-85
2021/12/01 12:24:19;;;;;;;;;;;8.30;99.90;;;;;;4977478;28;19926;-85
2021/12/01 12:26:48;;;;;;;;;;;8.30;99.90;;;;;;4978122;28;19925;-85
2021/12/01 12:29:25;;;;;;;;;;;8.30;99.90;;;;;;4994289;28;20275;-85
2021/12/01 12:31:53;;;;;;;;;;;8.20;99.90;;;;;;4991307;28;19926;-86
2021/12/01 12:34:21;;;;;;;;;;;8.20;99.90;;;;;;4994083;28;19930;-86
2021/12/01 12:36:54;;;;;;;;;;;8.30;99.90;;;;;;4993632;28;19926;-86
2021/12/01 12:39:23;;;;;;;;;;;8.30;99.90;;;;;;4994093;28;20294;-85
2021/12/01 12:41:58;;;;;;;;;;;8.30;99.90;;;;;;4993657;28;19929;-85
2021/12/01 12:44:44;;;;;;;;;;;8.20;99.90;;;;;;4993873;28;19977;-85
2021/12/01 12:47:13;;;;;;;;;;;8.20;99.90;;;;;;4976488;28;19926;-85
2021/12/01 12:49:47;;;;;;;;;;;8.20;99.90;;;;;;4977681;28;19930;-85
2021/12/01 12:52:27;;;;;;;;;;;8.20;99.90;;;;;;4993299;28;20497;-86
2021/12/01 12:55:02;;;;;;;;;;;8.20;99.90;;;;;;4977151;28;20314;-86
2021/12/01 12:57:47;;;;;;;;;;;8.10;99.90;;;;;;4993479;28;19949;-87
2021/12/01 13:00:27;;;;;;;;;;;8.10;99.90;;;;;;4977104;28;19925;-86
2021/12/01 13:02:53;;;;;;;;;;;8.10;99.90;;;;;;4977093;28;19926;-86
2021/12/01 13:05:35;;;;;;;;;;;8.10;99.90;;;;;;4993435;28;19929;-85
2021/12/01 13:08:02;;;;;;;;;;;8.00;99.90;;;;;;4993206;28;19933;-85
2021/12/01 13:10:38;;;;;;;;;;;8.00;99.90;;;;;;4993397;28;19926;-86
2021/12/01 13:13:10;;;;;;;;;;;8.00;99.90;;;;;;4992842;28;20416;-87
2021/12/01 13:15:42;;;;;;;;;;;8.10;99.90;;;;;;4977280;28;19926;-85
2021/12/01 13:18:16;;;;;;;;;;;8.00;99.90;;;;;;4992984;28;19926;-84
2021/12/01 13:20:45;;;;;;;;;;;8.10;99.90;;;;;;4977088;28;19937;-86
2021/12/01 13:23:13;;;;;;;;;;;8.00;99.90;;;;;;4993038;28;19926;-85
2021/12/01 13:25:51;;;;;;;;;;;7.90;99.90;;;;;;4993139;28;20401;-85
2021/12/01 13:28:22;;;;;;;;;;;7.90;99.90;;;;;;4993030;28;19926;-84
2021/12/01 13:31:16;;;;;;;;;;;7.90;99.90;;;;;;4992976;28;20063;-84
2021/12/01 13:33:58;;;;;;;;;;;7.90;99.90;;;;;;4991169;28;20267;-86
2021/12/01 13:36:27;;;;;;;;;;;7.90;99.90;;;;;;4993163;28;20317;-85
2021/12/01 13:38:56;;;;;;;;;;;7.90;99.90;;;;;;4993169;28;19936;-85
2021/12/01 13:41:22;;;;;;;;;;;7.90;99.90;;;;;;4976937;28;19925;-85
2021/12/01 13:43:47;;;;;;;;;;;7.90;99.90;;;;;;4976886;28;19941;-85
2021/12/01 13:46:17;;;;;;;;;;;7.90;99.90;;;;;;4991761;28;19930;-85
2021/12/01 13:48:54;;;;;;;;;;;7.90;99.90;;;;;;4992992;28;20056;-85
2021/12/01 13:51:23;;;;;;;;;;;7.90;99.90;;;;;;4992539;28;19933;-85
2021/12/01 13:53:51;;;;;;;;;;;7.90;99.90;;;;;;4992858;28;20388;-85
2021/12/01 13:56:18;;;;;;;;;;;7.90;99.90;;;;;;4976267;28;19949;-85
2021/12/01 13:58:47;;;;;;;;;;;7.90;99.90;;;;;;4992843;28;19973;-85
2021/12/01 14:01:13;;;;;;;;;;;7.90;99.90;;;;;;4992253;28;19949;-85
2021/12/01 14:04:01;;;;;;;;;;;7.90;99.90;;;;;;4992851;28;19930;-85
2021/12/01 14:06:28;;;;;;;;;;;7.80;99.90;;;;;;4992911;28;19925;-88
2021/12/01 14:09:06;;;;;;;;;;;7.80;99.90;;;;;;4992708;28;20298;-86
2021/12/01 14:11:44;;;;;;;;;;;7.70;99.90;;;;;;4976663;28;19973;-90
2021/12/01 14:14:13;;;;;;;;;;;7.70;99.90;;;;;;4992319;28;19936;-86
2021/12/01 14:16:42;;;;;;;;;;;7.60;99.90;;;;;;4976382;28;19984;-86
2021/12/01 14:19:07;;;;;;;;;;;7.60;99.90;;;;;;4992170;28;19925;-84
2021/12/01 14:21:33;;;;;;;;;;;7.60;99.90;;;;;;4992651;28;19936;-84
2021/12/01 14:24:02;;;;;;;;;;;7.60;99.90;;;;;;4992695;28;19932;-86
2021/12/01 14:26:31;;;;;;;;;;;7.50;99.90;;;;;;4992309;28;19981;-87
2021/12/01 14:28:58;;;;;;;;;;;7.50;99.90;;;;;;4992656;28;19926;-84
2021/12/01 14:31:52;;;;;;;;;;;7.40;99.90;;;;;;4991774;28;20397;-88
2021/12/01 14:34:28;;;;;;;;;;;7.40;99.90;;;;;;4969154;28;19969;-87
2021/12/01 14:36:59;;;;;;;;;;;7.40;99.90;;;;;;4976196;28;19949;-89
2021/12/01 14:39:25;;;;;;;;;;;7.40;99.90;;;;;;4992067;28;20457;-90
2021/12/01 14:42:13;;;;;;;;;;;7.30;99.90;;;;;;4992814;28;20008;-91
2021/12/01 14:44:55;;;;;;;;;;;7.30;99.90;;;;;;4971679;28;19926;-90
2021/12/01 14:47:37;;;;;;;;;;;;;;;;;;;;;
2021/12/01 14:50:24;;;;;;;;;;;7.20;99.90;;;;;;4992795;28;19933;-91
2021/12/01 14:53:01;;;;;;;;;;;7.10;99.90;;;;;;4976993;28;20382;-91
2021/12/01 14:55:53;;;;;;;;;;;7.10;99.90;;;;;;4974908;28;20417;-91
2021/12/01 14:59:07;;;;;;;;;;;7.00;99.90;;;;;;4978263;28;19972;-90
2021/12/01 15:01:41;;;;;;;;;;;6.90;99.90;;;;;;5011758;28;19926;-91
2021/12/01 15:04:19;;;;;;;;;;;6.80;99.90;;;;;;4995954;28;20301;-91
2021/12/01 15:06:55;;;;;;;;;;;6.80;99.90;;;;;;4980649;28;19932;-92
2021/12/01 15:09:35;;;;;;;;;;;6.70;99.90;;;;;;4979979;28;19996;-90
2021/12/01 15:12:13;;;;;;;;;;;6.70;99.90;;;;;;4980261;28;19926;-92
2021/12/01 15:14:52;;;;;;;;;;;6.70;99.90;;;;;;4980429;28;19977;-91
2021/12/01 15:17:26;;;;;;;;;;;6.80;99.90;;;;;;4978921;28;19925;-91
2021/12/01 15:20:07;;;;;;;;;;;6.70;99.90;;;;;;4979984;28;19992;-92
2021/12/01 15:22:37;;;;;;;;;;;6.80;99.90;;;;;;4979704;28;19925;-92
2021/12/01 15:25:13;;;;;;;;;;;6.70;99.90;;;;;;4979764;28;20330;-93
2021/12/01 15:27:47;;;;;;;;;;;6.70;99.90;;;;;;4979926;28;20025;-90
2021/12/01 15:30:23;;;;;;;;;;;6.80;99.90;;;;;;4977106;28;20459;-90
2021/12/01 15:33:00;;;;;;;;;;;6.70;99.90;;;;;;4995950;28;20365;-92
2021/12/01 15:38:50;;;;;;;;;;;6.60;99.90;;;;;;4995660;28;19929;-91
2021/12/01 15:41:41;;;;;;;;;;;6.60;99.90;;;;;;4979862;28;19926;-92
2021/12/01 15:44:07;;;;;;;;;;;6.50;99.90;;;;;;4995651;28;20016;-91
2021/12/01 15:47:04;;;;;;;;;;;6.50;99.90;;;;;;4980127;28;20346;-91
2021/12/01 15:49:50;;;;;;;;;;;6.50;99.90;;;;;;4994941;28;19930;-90
2021/12/01 15:52:26;;;;;;;;;;;;;;;;;;;;;
2021/12/01 15:54:54;;;;;;;;;;;6.50;99.90;;;;;;4992715;28;19926;-92
2021/12/01 15:57:26;;;;;;;;;;;6.50;99.90;;;;;;4978808;28;19926;-92
2021/12/01 16:00:14;;;;;;;;;;;6.40;99.90;;;;;;4979755;28;20293;-92
2021/12/01 16:03:06;;;;;;;;;;;6.40;99.90;;;;;;4979493;28;20295;-91
2021/12/01 16:05:34;;;;;;;;;;;6.30;99.90;;;;;;4994719;28;20058;-92
2021/12/01 16:08:08;;;;;;;;;;;6.20;99.90;;;;;;4980455;28;19926;-93
2021/12/01 16:10:55;;;;;;;;;;;;;;;;;;;;;
2021/12/01 16:13:36;;;;;;;;;;;;;;;;;;;;;
2021/12/01 16:16:23;;;;;;;;;;;6.20;99.90;;;;;;4995606;28;19932;-91
2021/12/01 16:19:30;;;;;;;;;;;;;;;;;;;;;
2021/12/01 16:21:59;;;;;;;;;;;6.30;99.90;;;;;;4995490;28;19933;-93
2021/12/01 16:24:25;;;;;;;;;;;6.30;99.90;;;;;;4978519;28;19926;-91
2021/12/01 16:27:21;;;;;;;;;;;6.30;99.90;;;;;;4978844;28;19992;-92
2021/12/01 16:30:22;;;;;;;;;;;6.20;99.90;;;;;;4974176;28;19925;-92
2021/12/01 16:33:11;;;;;;;;;;;6.20;99.90;;;;;;4994603;28;20101;-91
2021/12/01 16:36:26;;;;;;;;;;;;;;;;;;;;;
2021/12/01 16:39:01;;;;;;;;;;;6.30;99.90;;;;;;4991025;28;19930;-90
2021/12/01 16:41:53;;;;;;;;;;;6.20;99.90;;;;;;4978780;28;19933;-90
2021/12/01 16:47:12;;;;;;;;;;;6.10;99.90;;;;;;4980551;28;20012;-90
2021/12/01 16:53:09;;;;;;;;;;;6.00;99.90;;;;;;4984122;28;19926;-91
2021/12/01 16:55:43;;;;;;;;;;;6.00;99.90;;;;;;4993985;28;19925;-90
2021/12/01 16:58:16;;;;;;;;;;;6.00;99.90;;;;;;4977724;28;20382;-92
2021/12/01 17:01:03;;;;;;;;;;;6.00;99.90;;;;;;4977826;28;19926;-91
2021/12/01 17:06:51;;;;;;;;;;;6.00;99.90;;;;;;4977904;28;19934;-91
2021/12/01 17:09:52;;;;;;;;;;;6.00;99.90;;;;;;4992422;28;19926;-94
2021/12/01 17:12:42;;;;;;;;;;;6.00;99.90;;;;;;4992906;28;19926;-90